หน้าหลัก
METAR-TAF:

METAR-TAF

ท่าอากาศยาน :

Casement Aerodrome

ดับลิน, ไอร์แลนด์

ละติจูด: 53-18-06N, ลองจิจูด: 6-27-04W, ความสูง: 97 ม.

การสังเกตสภาพอากาศปัจจุบัน

รายงานได้ทำขึ้นเมื่อ 58 นาทีที่แล้ว ณ เวลา 23:00 UTC
ลม 3 นอตจากเหนือ/ตะวันตกเฉียงเหนือ, แปรผันระหว่างตะวันตก/ตะวันตกเฉียงเหนือ และเหนือ/ตะวันออกเฉียงเหนือ
อุณหภูมิ 10°C
ความชื้น 66%
ความกดอากาศ 1022 hPa
ทัศนวิสัย 10 กม. หรือมากกว่า
มีเมฆกระจายเป็นบางส่วนที่ความสูง 3300 ฟุต

METAR: EIME 182300Z 34003KT 300V020 9999 SCT033 10/04 Q1022

เวลา: 00:58 (23:58 UTC)

การพยากรณ์

รายงานได้ทำขึ้นเมื่อ 58 นาทีที่แล้ว ณ เวลา 23:00 UTC
การพยากรณ์มีผลตั้งแต่วันที่ 19 ณ เวลา 00 UTC จนถึงวันที่ 19 ณ เวลา 09 UTC
ลม 5 นอตจากเหนือ/ตะวันตกเฉียงเหนือ
ทัศนวิสัย 10 กม. หรือมากกว่า
มีเมฆกระจายเป็นบางส่วนที่ความสูง 3000 ฟุต

TAF: EIME 182300Z 1900/1909 33005KT 9999 SCT030

สังเกตการณ์สภาพอากาศและพยากรณ์อากาศของสนามบินมากกว่า 4000 แห่ง (รายงาน METAR และ TAF).

สถานีที่ดูได้จะแสดงไว้ด้วยจุดสีเหลืองและสีแดงบนแผนที่.

เลื่อนเมาส์ไปเหนือจุดเพื่อดูชื่อสถานี.

แล้วคลิกเพื่อดูสังเกตการณ์และการพยากรณ์สภาพอากาศ.

ในการเปลี่ยนแผนที่: คลิกที่ปุ่มสีเขียวที่มีกากบาทสีดำเพื่อซูมเข้า; ที่ปุ่มสีเขียวที่มีขีดเพื่อซูมออก; หรือที่ลูกศรสีเขียวเพื่อไปยังแผนที่ที่อยู่ติดกัน.


METAR-TAF: